Flight Track Log - Related Links

Times and Time Zones

All times are in EDT time to prevent confusion due to time zone crossing. See the N400PU flight status page for this flight to view local times or setup timezone preferences in your user account.

Time Position Orientation Groundspeed Altitude Reporting Facility
EDT Latitude Longitude Course Direction KTS MPH feet Rate Location/Type
Thu 02:54:52 PM 40.8581 -96.7658 333° Northwest 161 185 2,000  Level Minneapolis Center
Thu 02:55:10 PM 40.8689 -96.7731 333° Northwest 180 207 2,500 2,535 Climbing Minneapolis Center
Thu 02:56:03 PM 40.9242 -96.7464 20° North 232 267 5,000 3,130 Climbing Minneapolis Center
Thu 02:57:05 PM 40.9150 -96.6550 98° East 250 288 8,500 3,024 Climbing Minneapolis Center
Thu 02:58:06 PM 40.9058 -96.5592 97° East 259 298 11,200 2,732 Climbing Minneapolis Center
Thu 02:59:08 PM 40.8942 -96.4542 98° East 280 322 14,100 2,806 Climbing Minneapolis Center
Thu 03:00:10 PM 40.8728 -96.3494 105° East 293 337 17,000 2,710 Climbing Minneapolis Center
Thu 03:01:12 PM 40.8275 -96.2272 116° Southeast 307 353 19,700 2,419 Climbing Minneapolis Center
Thu 03:02:14 PM 40.7867 -96.1214 117° Southeast 319 367 22,000 2,129 Climbing Minneapolis Center
Thu 03:03:16 PM 40.7744 -96.0050 98° East 322 371 24,100 1,951 Climbing Minneapolis Center
Thu 03:04:17 PM 40.7650 -95.8856 96° East 328 377 26,000 1,805 Climbing Minneapolis Center
Thu 03:05:19 PM 40.7547 -95.7600 96° East 341 392 27,800 1,742 Climbing Minneapolis Center
Thu 03:06:21 PM 40.7444 -95.6294 96° East 355 409 29,600 1,597 Climbing Minneapolis Center
Thu 03:07:23 PM 40.7303 -95.4642 96° East 375 432 31,100 1,500 Climbing Minneapolis Center
Thu 03:08:25 PM 40.7206 -95.3236 95° East 384 442 32,700 1,548 Climbing Minneapolis Center
Thu 03:09:27 PM 40.7081 -95.1836 97° East 386 444 34,300 1,403 Climbing Minneapolis Center
Thu 03:10:29 PM 40.6961 -95.0453 96° East 383 441 35,600 1,065 Climbing Minneapolis Center
Thu 03:11:31 PM 40.6831 -94.9028 97° East 389 448 36,500 968 Climbing Minneapolis Center
Thu 03:12:33 PM 40.6697 -94.7575 97° East 397 457 37,600 1,122 Climbing Minneapolis Center
Thu 03:13:34 PM 40.6575 -94.6136 96° East 398 458 38,800 683 Climbing Minneapolis Center
Thu 03:14:36 PM 40.6428 -94.4489 97° East 400 460 39,000 97 Climbing Minneapolis Center
Thu 03:15:38 PM 40.6281 -94.2933 97° East 422 486 39,000  Level Minneapolis Center
Thu 03:16:40 PM 40.6131 -94.1328 97° East 439 505 39,000  Level Minneapolis Center
Thu 03:17:42 PM 40.5972 -93.9689 97° East 451 519 39,000  Level Minneapolis Center
Thu 03:18:43 PM 40.5967 -93.7717 90° East 450 518 39,000  Level Minneapolis Center
Thu 03:19:45 PM 40.5967 -93.6075 90° East 451 519 39,000  Level Minneapolis Center
Thu 03:20:47 PM 40.5981 -93.4442 89° East 450 518 39,000  Level Minneapolis Center
Thu 03:21:34 PM 40.5947 -93.3150 92° East 445 512 39,000  Level Kansas City Center
Thu 03:22:35 PM 40.5953 -93.1514 90° East 449 517 39,000  Level Kansas City Center
Thu 03:23:36 PM 40.5947 -92.9947 90° East 447 514 39,000  Level Kansas City Center
Thu 03:24:38 PM 40.5944 -92.8108 90° East 444 511 39,000  Level Kansas City Center
Thu 03:25:41 PM 40.5936 -92.6464 90° East 448 516 39,000  Level Kansas City Center
Thu 03:26:44 PM 40.5925 -92.4822 90° East 450 518 39,000  Level Kansas City Center
Thu 03:27:45 PM 40.5908 -92.2992 91° East 448 516 39,000  Level Kansas City Center
Thu 03:28:48 PM 40.5886 -92.1344 91° East 450 518 39,000  Level Kansas City Center
Thu 03:29:49 PM 40.5872 -91.9700 91° East 451 519 39,000  Level Kansas City Center
Thu 03:30:52 PM 40.5844 -91.8058 91° East 452 520 39,000  Level Kansas City Center
Thu 03:31:53 PM 40.5825 -91.6406 91° East 453 521 39,000  Level Kansas City Center
Thu 03:32:56 PM 40.5792 -91.4758 91° East 453 521 39,000  Level Kansas City Center
Thu 03:34:00 PM 40.5767 -91.2947 91° East 455 524 39,000  Level Chicago Center
Thu 03:35:02 PM 40.5717 -91.0939 92° East 458 527 39,000  Level Chicago Center
Thu 03:36:04 PM 40.5689 -90.9272 91° East 458 527 39,000  Level Chicago Center
Thu 03:37:06 PM 40.5669 -90.7592 91° East 460 529 39,000  Level Chicago Center
Thu 03:38:08 PM 40.5617 -90.5928 92° East 459 528 39,000  Level Chicago Center
Thu 03:39:10 PM 40.5572 -90.4253 92° East 459 528 39,000  Level Chicago Center
Thu 03:40:12 PM 40.5514 -90.2467 92° East 462 532 39,000  Level Chicago Center
Thu 03:41:14 PM 40.5469 -90.0783 92° East 463 533 39,000  Level Chicago Center
Thu 03:42:16 PM 40.5411 -89.8764 92° East 465 535 39,000  Level Chicago Center
Thu 03:43:18 PM 40.5356 -89.7089 92° East 462 532 39,000  Level Chicago Center
Thu 03:44:20 PM 40.5286 -89.5417 93° East 462 532 39,000  Level Chicago Center
Thu 03:45:22 PM 40.5228 -89.3594 92° East 459 528 39,000  Level Chicago Center
Thu 03:46:23 PM 40.5164 -89.1919 93° East 461 531 39,000 -871 Level Chicago Center
Thu 03:47:26 PM 40.5100 -89.0247 93° East 460 529 37,200 -2,274 Descending Chicago Center
Thu 03:48:27 PM 40.5036 -88.8578 93° East 460 529 34,300 -3,024 Descending Chicago Center
Thu 03:49:29 PM 40.4969 -88.6869 93° East 439 505 31,000 -3,339 Descending Chicago Center
Thu 03:50:31 PM 40.4900 -88.5300 93° East 435 501 27,400 -2,855 Descending Chicago Center
Thu 03:51:33 PM 40.4836 -88.3633 93° East 456 525 25,100 -1,968 Descending Chicago Center
Thu 03:52:36 PM 40.4736 -88.1594 94° East 469 540 23,300 -2,112 Descending Chicago Center
Thu 03:53:38 PM 40.4667 -87.9975 93° East 451 519 20,700 -2,565 Descending Chicago Center
Thu 03:54:40 PM 40.4600 -87.8456 93° East 427 491 18,000 -2,516 Descending Chicago Center
Thu 03:55:42 PM 40.4528 -87.6931 94° East 422 486 15,500 -2,516 Descending Chicago Center
Thu 03:56:44 PM 40.4461 -87.5544 94° East 391 450 12,800 -2,177 Descending Chicago Center
Thu 03:57:46 PM 40.4383 -87.4039 94° East 356 410 11,000 -1,296 Descending Chicago Center
Thu 03:58:49 PM 40.4336 -87.2992 93° East 307 353 10,100 -1,500 Descending Chicago Center
Thu 03:59:34 PM 40.4283 -87.2269 95° East 266 306 8,300 -1,935 Descending Chicago Center
Thu 03:59:51 PM 40.4278 -87.2067 92° East 270 311 8,100 -2,262 Descending Chicago Center
Thu 04:00:35 PM 40.4233 -87.1472 96° East 210 242 6,000 -2,323 Descending Chicago Center
Thu 04:00:53 PM 40.4261 -87.1308 77° East 236 272 5,700 -1,500 Descending Chicago Center
Thu 04:01:55 PM 40.4181 -87.0608 99° East 213 245 4,000 -2,097 Descending Chicago Center
Thu 04:02:36 PM 40.4056 -87.1186 254° West 165 190 2,100 -1,118 Descending Chicago Center
Thu 04:03:37 PM 40.4222 -87.0733 64° Northeast 168 193 2,100 -198 Level Chicago Center
Thu 04:04:37 PM 40.4200 -87.0186 93° East 144 166 1,700 -400 Descending Chicago Center
Thu 04:06:00 PM 40.4000 -86.9333 90° East  Level FlightAware Approximate
Thu 04:13:00 PM 40.4123 -86.9369 90° East  Level Estimated

Login

Don't have an account? Register now (free) for customized features, flight alerts, and more!